sensor_id;sensor_type;location;lat;lon;timestamp;pressure;altitude;pressure_sealevel;temperature;humidity
27210;BME280;14721;42.668;23.386;2023-08-06T00:00:25;94140.47;;;19.35;100.00
27210;BME280;14721;42.668;23.386;2023-08-06T00:02:50;94150.13;;;19.44;100.00
27210;BME280;14721;42.668;23.386;2023-08-06T00:05:16;94141.22;;;19.50;100.00
27210;BME280;14721;42.668;23.386;2023-08-06T00:07:44;94153.94;;;19.49;100.00
27210;BME280;14721;42.668;23.386;2023-08-06T00:10:10;94119.59;;;19.29;100.00
27210;BME280;14721;42.668;23.386;2023-08-06T00:12:35;94139.44;;;19.36;100.00
27210;BME280;14721;42.668;23.386;2023-08-06T00:15:03;94142.78;;;19.17;100.00
27210;BME280;14721;42.668;23.386;2023-08-06T00:17:28;94162.91;;;19.29;100.00
27210;BME280;14721;42.668;23.386;2023-08-06T00:19:54;94140.50;;;19.20;100.00
27210;BME280;14721;42.668;23.386;2023-08-06T00:22:19;94152.91;;;19.29;100.00
27210;BME280;14721;42.668;23.386;2023-08-06T00:24:45;94154.63;;;19.16;100.00
27210;BME280;14721;42.668;23.386;2023-08-06T00:27:11;94152.94;;;19.15;100.00
27210;BME280;14721;42.668;23.386;2023-08-06T00:29:36;94135.03;;;18.93;100.00
27210;BME280;14721;42.668;23.386;2023-08-06T00:32:02;94121.88;;;18.68;100.00
27210;BME280;14721;42.668;23.386;2023-08-06T00:34:27;94138.16;;;18.75;100.00
27210;BME280;14721;42.668;23.386;2023-08-06T00:36:52;94087.50;;;18.33;100.00
27210;BME280;14721;42.668;23.386;2023-08-06T00:39:19;94105.75;;;18.60;100.00
27210;BME280;14721;42.668;23.386;2023-08-06T00:41:47;94096.38;;;18.63;100.00
27210;BME280;14721;42.668;23.386;2023-08-06T00:44:12;94103.31;;;18.65;100.00
27210;BME280;14721;42.668;23.386;2023-08-06T00:46:38;94115.22;;;18.71;100.00
27210;BME280;14721;42.668;23.386;2023-08-06T00:49:04;94117.16;;;18.77;100.00
27210;BME280;14721;42.668;23.386;2023-08-06T00:51:30;94101.50;;;18.73;100.00
27210;BME280;14721;42.668;23.386;2023-08-06T00:53:56;94111.06;;;18.90;100.00
27210;BME280;14721;42.668;23.386;2023-08-06T00:56:21;94118.53;;;18.88;100.00
27210;BME280;14721;42.668;23.386;2023-08-06T00:58:48;94113.09;;;18.88;100.00
27210;BME280;14721;42.668;23.386;2023-08-06T01:01:14;94094.66;;;18.77;100.00
27210;BME280;14721;42.668;23.386;2023-08-06T01:03:39;94100.66;;;18.93;100.00
27210;BME280;14721;42.668;23.386;2023-08-06T01:06:05;94074.72;;;18.78;100.00
27210;BME280;14721;42.668;23.386;2023-08-06T01:08:58;94079.75;;;18.81;100.00
27210;BME280;14721;42.668;23.386;2023-08-06T01:11:47;94061.19;;;18.78;100.00
27210;BME280;14721;42.668;23.386;2023-08-06T01:14:28;94075.72;;;18.98;100.00
27210;BME280;14721;42.668;23.386;2023-08-06T01:16:56;94036.16;;;18.97;100.00
27210;BME280;14721;42.668;23.386;2023-08-06T01:19:24;94074.38;;;19.29;100.00
27210;BME280;14721;42.668;23.386;2023-08-06T01:21:49;94060.00;;;19.29;100.00
27210;BME280;14721;42.668;23.386;2023-08-06T01:24:15;94046.09;;;19.38;100.00
27210;BME280;14721;42.668;23.386;2023-08-06T01:27:08;94055.22;;;19.58;100.00
27210;BME280;14721;42.668;23.386;2023-08-06T01:30:03;94057.13;;;19.64;100.00
27210;BME280;14721;42.668;23.386;2023-08-06T01:32:29;94046.75;;;19.68;100.00
27210;BME280;14721;42.668;23.386;2023-08-06T01:34:57;94041.31;;;19.68;100.00
27210;BME280;14721;42.668;23.386;2023-08-06T01:37:31;94049.28;;;19.76;100.00
27210;BME280;14721;42.668;23.386;2023-08-06T01:39:58;94049.97;;;19.84;100.00
27210;BME280;14721;42.668;23.386;2023-08-06T01:42:26;94057.09;;;19.92;100.00
27210;BME280;14721;42.668;23.386;2023-08-06T01:44:56;94036.00;;;19.87;100.00
27210;BME280;14721;42.668;23.386;2023-08-06T01:47:42;94011.78;;;19.79;100.00
27210;BME280;14721;42.668;23.386;2023-08-06T01:50:08;94023.94;;;19.90;100.00
27210;BME280;14721;42.668;23.386;2023-08-06T01:52:33;94011.34;;;19.76;100.00
27210;BME280;14721;42.668;23.386;2023-08-06T01:54:59;94033.91;;;19.83;100.00
27210;BME280;14721;42.668;23.386;2023-08-06T01:57:24;94034.97;;;19.88;100.00
27210;BME280;14721;42.668;23.386;2023-08-06T01:59:50;94055.91;;;20.01;100.00
27210;BME280;14721;42.668;23.386;2023-08-06T02:02:17;94044.97;;;19.88;100.00
27210;BME280;14721;42.668;23.386;2023-08-06T02:04:43;94035.41;;;19.92;100.00
27210;BME280;14721;42.668;23.386;2023-08-06T02:07:08;94038.31;;;19.90;100.00
27210;BME280;14721;42.668;23.386;2023-08-06T02:09:34;94041.44;;;19.94;100.00
27210;BME280;14721;42.668;23.386;2023-08-06T02:12:01;94007.22;;;19.86;100.00
27210;BME280;14721;42.668;23.386;2023-08-06T02:14:27;94024.53;;;19.85;100.00
27210;BME280;14721;42.668;23.386;2023-08-06T02:16:52;94032.84;;;19.84;100.00
27210;BME280;14721;42.668;23.386;2023-08-06T02:19:18;94012.78;;;19.72;100.00
27210;BME280;14721;42.668;23.386;2023-08-06T02:21:43;94034.72;;;19.77;100.00
27210;BME280;14721;42.668;23.386;2023-08-06T02:24:09;94035.09;;;19.74;100.00
27210;BME280;14721;42.668;23.386;2023-08-06T02:26:34;94053.50;;;19.85;100.00
27210;BME280;14721;42.668;23.386;2023-08-06T02:29:00;94048.47;;;19.75;100.00
27210;BME280;14721;42.668;23.386;2023-08-06T02:31:25;94048.56;;;19.61;100.00
27210;BME280;14721;42.668;23.386;2023-08-06T02:33:51;94057.88;;;19.52;100.00
27210;BME280;14721;42.668;23.386;2023-08-06T02:36:17;94065.41;;;19.56;100.00
27210;BME280;14721;42.668;23.386;2023-08-06T02:38:42;94029.22;;;19.36;100.00
27210;BME280;14721;42.668;23.386;2023-08-06T02:41:08;94050.38;;;19.05;100.00
27210;BME280;14721;42.668;23.386;2023-08-06T02:43:33;94097.56;;;19.17;100.00
27210;BME280;14721;42.668;23.386;2023-08-06T02:46:08;94083.81;;;19.19;100.00
27210;BME280;14721;42.668;23.386;2023-08-06T02:48:34;94088.84;;;19.22;100.00
27210;BME280;14721;42.668;23.386;2023-08-06T02:51:00;94091.38;;;19.23;100.00
27210;BME280;14721;42.668;23.386;2023-08-06T02:53:25;94068.88;;;19.23;100.00
27210;BME280;14721;42.668;23.386;2023-08-06T02:55:51;94057.91;;;19.31;100.00
27210;BME280;14721;42.668;23.386;2023-08-06T02:58:17;94047.84;;;19.25;100.00
27210;BME280;14721;42.668;23.386;2023-08-06T03:00:47;94033.16;;;19.13;100.00
27210;BME280;14721;42.668;23.386;2023-08-06T03:03:24;94020.41;;;19.07;100.00
27210;BME280;14721;42.668;23.386;2023-08-06T03:05:53;94038.28;;;19.01;100.00
27210;BME280;14721;42.668;23.386;2023-08-06T03:08:20;94029.91;;;18.96;100.00
27210;BME280;14721;42.668;23.386;2023-08-06T03:10:49;94018.03;;;19.18;100.00
27210;BME280;14721;42.668;23.386;2023-08-06T03:13:16;93994.13;;;19.01;100.00
27210;BME280;14721;42.668;23.386;2023-08-06T03:15:41;94000.44;;;19.08;100.00
27210;BME280;14721;42.668;23.386;2023-08-06T03:18:09;93999.38;;;18.81;100.00
27210;BME280;14721;42.668;23.386;2023-08-06T03:20:35;94023.72;;;18.81;100.00
27210;BME280;14721;42.668;23.386;2023-08-06T03:23:00;94021.56;;;18.91;100.00
27210;BME280;14721;42.668;23.386;2023-08-06T03:25:26;93997.81;;;18.93;100.00
27210;BME280;14721;42.668;23.386;2023-08-06T03:27:51;93986.00;;;19.01;100.00
27210;BME280;14721;42.668;23.386;2023-08-06T03:30:17;94028.53;;;19.07;100.00
27210;BME280;14721;42.668;23.386;2023-08-06T03:32:42;94066.97;;;18.96;100.00
27210;BME280;14721;42.668;23.386;2023-08-06T03:35:08;94048.22;;;18.94;100.00
27210;BME280;14721;42.668;23.386;2023-08-06T03:37:33;94061.81;;;19.01;100.00
27210;BME280;14721;42.668;23.386;2023-08-06T03:39:59;94052.28;;;19.05;100.00
27210;BME280;14721;42.668;23.386;2023-08-06T03:42:25;94055.94;;;19.18;100.00
27210;BME280;14721;42.668;23.386;2023-08-06T03:44:50;94033.69;;;19.23;100.00
27210;BME280;14721;42.668;23.386;2023-08-06T03:47:15;94045.13;;;19.25;100.00
27210;BME280;14721;42.668;23.386;2023-08-06T03:49:41;94057.50;;;19.06;100.00
27210;BME280;14721;42.668;23.386;2023-08-06T03:52:14;94076.88;;;18.89;100.00
27210;BME280;14721;42.668;23.386;2023-08-06T03:54:39;94078.69;;;19.03;100.00
27210;BME280;14721;42.668;23.386;2023-08-06T03:57:05;94052.88;;;19.00;100.00
27210;BME280;14721;42.668;23.386;2023-08-06T03:59:30;94047.56;;;19.13;100.00
27210;BME280;14721;42.668;23.386;2023-08-06T04:01:56;94071.19;;;19.26;100.00
27210;BME280;14721;42.668;23.386;2023-08-06T04:04:22;94096.16;;;19.42;100.00
27210;BME280;14721;42.668;23.386;2023-08-06T04:06:47;94122.22;;;19.43;100.00
27210;BME280;14721;42.668;23.386;2023-08-06T04:09:13;94114.38;;;19.27;100.00
27210;BME280;14721;42.668;23.386;2023-08-06T04:11:38;94107.31;;;19.12;100.00
27210;BME280;14721;42.668;23.386;2023-08-06T04:14:04;94091.31;;;19.17;100.00
27210;BME280;14721;42.668;23.386;2023-08-06T04:16:29;94069.00;;;19.36;100.00
27210;BME280;14721;42.668;23.386;2023-08-06T04:18:55;94066.72;;;19.60;100.00
27210;BME280;14721;42.668;23.386;2023-08-06T04:21:20;94016.22;;;19.53;100.00
27210;BME280;14721;42.668;23.386;2023-08-06T04:23:46;94056.47;;;19.62;100.00
27210;BME280;14721;42.668;23.386;2023-08-06T04:26:11;94061.28;;;19.60;100.00
27210;BME280;14721;42.668;23.386;2023-08-06T04:28:38;94041.22;;;19.55;100.00
27210;BME280;14721;42.668;23.386;2023-08-06T04:31:03;94044.19;;;19.60;100.00
27210;BME280;14721;42.668;23.386;2023-08-06T04:33:29;94068.28;;;19.82;100.00
27210;BME280;14721;42.668;23.386;2023-08-06T04:35:55;94065.84;;;19.87;100.00
27210;BME280;14721;42.668;23.386;2023-08-06T04:38:24;94022.78;;;19.71;100.00
27210;BME280;14721;42.668;23.386;2023-08-06T04:40:52;94029.75;;;19.87;100.00
27210;BME280;14721;42.668;23.386;2023-08-06T04:43:20;94014.75;;;19.91;100.00
27210;BME280;14721;42.668;23.386;2023-08-06T04:46:05;93955.88;;;19.72;100.00
27210;BME280;14721;42.668;23.386;2023-08-06T04:48:33;94005.00;;;20.03;100.00
27210;BME280;14721;42.668;23.386;2023-08-06T04:50:59;94017.81;;;20.15;100.00
27210;BME280;14721;42.668;23.386;2023-08-06T04:53:25;94010.75;;;20.27;100.00
27210;BME280;14721;42.668;23.386;2023-08-06T04:55:50;94012.50;;;20.41;100.00
27210;BME280;14721;42.668;23.386;2023-08-06T04:58:16;94007.06;;;20.41;100.00
27210;BME280;14721;42.668;23.386;2023-08-06T05:00:46;93973.03;;;20.39;100.00
27210;BME280;14721;42.668;23.386;2023-08-06T05:03:12;94003.38;;;20.88;100.00
27210;BME280;14721;42.668;23.386;2023-08-06T05:05:40;94001.56;;;21.15;100.00
27210;BME280;14721;42.668;23.386;2023-08-06T05:08:15;94013.22;;;21.41;100.00
27210;BME280;14721;42.668;23.386;2023-08-06T05:10:53;94015.50;;;21.70;100.00
27210;BME280;14721;42.668;23.386;2023-08-06T05:13:21;94008.38;;;21.69;100.00
27210;BME280;14721;42.668;23.386;2023-08-06T05:15:57;93988.56;;;21.43;100.00
27210;BME280;14721;42.668;23.386;2023-08-06T05:18:35;94007.59;;;21.43;100.00
27210;BME280;14721;42.668;23.386;2023-08-06T05:21:02;94009.88;;;21.39;100.00
27210;BME280;14721;42.668;23.386;2023-08-06T05:23:31;93992.97;;;21.37;100.00
27210;BME280;14721;42.668;23.386;2023-08-06T05:26:28;94019.28;;;21.63;100.00
27210;BME280;14721;42.668;23.386;2023-08-06T05:29:21;93996.06;;;21.47;100.00
27210;BME280;14721;42.668;23.386;2023-08-06T05:31:59;94032.00;;;21.56;100.00
27210;BME280;14721;42.668;23.386;2023-08-06T05:34:36;93988.94;;;21.53;100.00
27210;BME280;14721;42.668;23.386;2023-08-06T05:37:04;94032.97;;;22.13;100.00
27210;BME280;14721;42.668;23.386;2023-08-06T05:39:30;94000.22;;;23.08;97.26
27210;BME280;14721;42.668;23.386;2023-08-06T05:41:56;94009.88;;;23.60;92.55
27210;BME280;14721;42.668;23.386;2023-08-06T05:47:37;93981.88;;;24.61;84.55
27210;BME280;14721;42.668;23.386;2023-08-06T05:50:03;93993.47;;;25.68;81.97
27210;BME280;14721;42.668;23.386;2023-08-06T05:52:28;94004.50;;;26.94;75.32
27210;BME280;14721;42.668;23.386;2023-08-06T05:54:54;93990.66;;;27.78;70.62
27210;BME280;14721;42.668;23.386;2023-08-06T05:57:20;93992.53;;;28.65;65.55
27210;BME280;14721;42.668;23.386;2023-08-06T05:59:45;94004.72;;;28.96;63.03
27210;BME280;14721;42.668;23.386;2023-08-06T06:02:11;93995.78;;;29.05;62.17
27210;BME280;14721;42.668;23.386;2023-08-06T06:04:37;93989.97;;;28.59;59.85
27210;BME280;14721;42.668;23.386;2023-08-06T06:07:05;93980.09;;;28.03;62.58
27210;BME280;14721;42.668;23.386;2023-08-06T06:09:30;93990.16;;;27.48;65.91
27210;BME280;14721;42.668;23.386;2023-08-06T06:12:01;94025.03;;;27.97;64.01
27210;BME280;14721;42.668;23.386;2023-08-06T06:14:26;94036.34;;;28.01;61.67
27210;BME280;14721;42.668;23.386;2023-08-06T06:16:52;94044.03;;;28.75;61.55
27210;BME280;14721;42.668;23.386;2023-08-06T06:19:18;94059.63;;;29.07;58.02
27210;BME280;14721;42.668;23.386;2023-08-06T06:21:45;94048.78;;;28.41;58.80
27210;BME280;14721;42.668;23.386;2023-08-06T06:24:10;94047.31;;;27.84;60.04
27210;BME280;14721;42.668;23.386;2023-08-06T06:26:36;94032.16;;;26.92;61.63
27210;BME280;14721;42.668;23.386;2023-08-06T06:29:01;94045.19;;;27.41;61.66
27210;BME280;14721;42.668;23.386;2023-08-06T06:31:27;94070.28;;;27.22;62.15
27210;BME280;14721;42.668;23.386;2023-08-06T06:33:54;94060.34;;;26.76;63.59
27210;BME280;14721;42.668;23.386;2023-08-06T06:36:20;94078.56;;;25.90;64.38
27210;BME280;14721;42.668;23.386;2023-08-06T06:38:46;94062.25;;;25.01;67.83
27210;BME280;14721;42.668;23.386;2023-08-06T06:41:11;94087.88;;;24.89;70.76
27210;BME280;14721;42.668;23.386;2023-08-06T06:43:37;94081.06;;;24.80;72.34
27210;BME280;14721;42.668;23.386;2023-08-06T06:46:05;94070.03;;;24.50;73.55
27210;BME280;14721;42.668;23.386;2023-08-06T06:48:31;94106.06;;;24.59;72.32
27210;BME280;14721;42.668;23.386;2023-08-06T06:50:57;94070.25;;;24.49;72.19
27210;BME280;14721;42.668;23.386;2023-08-06T06:53:23;94104.16;;;24.95;70.57
27210;BME280;14721;42.668;23.386;2023-08-06T06:56:04;94100.47;;;25.19;68.93
27210;BME280;14721;42.668;23.386;2023-08-06T06:58:31;94105.06;;;24.89;69.86
27210;BME280;14721;42.668;23.386;2023-08-06T07:00:57;94083.38;;;25.53;68.09
27210;BME280;14721;42.668;23.386;2023-08-06T07:03:23;94064.41;;;26.62;64.42
27210;BME280;14721;42.668;23.386;2023-08-06T07:05:49;94102.28;;;27.73;59.65
27210;BME280;14721;42.668;23.386;2023-08-06T07:08:15;94093.78;;;28.02;57.51
27210;BME280;14721;42.668;23.386;2023-08-06T07:10:41;94094.91;;;28.39;56.31
27210;BME280;14721;42.668;23.386;2023-08-06T07:13:06;94115.44;;;28.86;54.01
27210;BME280;14721;42.668;23.386;2023-08-06T07:15:32;94085.72;;;29.53;53.21
27210;BME280;14721;42.668;23.386;2023-08-06T07:17:57;94110.28;;;30.08;50.75
27210;BME280;14721;42.668;23.386;2023-08-06T07:20:23;94114.69;;;30.35;50.57
27210;BME280;14721;42.668;23.386;2023-08-06T07:22:50;94096.38;;;30.24;49.30
27210;BME280;14721;42.668;23.386;2023-08-06T07:25:18;94092.16;;;30.48;48.52
27210;BME280;14721;42.668;23.386;2023-08-06T07:27:44;94116.53;;;30.25;48.33
27210;BME280;14721;42.668;23.386;2023-08-06T07:30:10;94102.22;;;30.01;46.52
27210;BME280;14721;42.668;23.386;2023-08-06T07:32:36;94110.44;;;30.23;46.82
27210;BME280;14721;42.668;23.386;2023-08-06T07:35:02;94111.63;;;30.68;44.76
27210;BME280;14721;42.668;23.386;2023-08-06T07:37:28;94105.50;;;30.25;45.67
27210;BME280;14721;42.668;23.386;2023-08-06T07:39:57;94119.72;;;30.80;44.33
27210;BME280;14721;42.668;23.386;2023-08-06T07:42:22;94128.16;;;31.15;43.55
27210;BME280;14721;42.668;23.386;2023-08-06T07:45:08;94117.66;;;31.12;43.77
27210;BME280;14721;42.668;23.386;2023-08-06T07:47:34;94082.75;;;31.38;43.23
27210;BME280;14721;42.668;23.386;2023-08-06T07:49:59;94109.13;;;31.80;42.79
27210;BME280;14721;42.668;23.386;2023-08-06T07:55:59;94118.81;;;31.78;41.23
27210;BME280;14721;42.668;23.386;2023-08-06T07:58:27;94111.16;;;32.25;41.57
27210;BME280;14721;42.668;23.386;2023-08-06T08:00:57;94092.94;;;32.14;40.34
27210;BME280;14721;42.668;23.386;2023-08-06T08:03:23;94096.25;;;32.51;40.20
27210;BME280;14721;42.668;23.386;2023-08-06T08:05:49;94118.66;;;32.59;39.71
27210;BME280;14721;42.668;23.386;2023-08-06T08:08:14;94113.41;;;32.68;39.20
27210;BME280;14721;42.668;23.386;2023-08-06T08:10:40;94110.06;;;33.01;38.11
27210;BME280;14721;42.668;23.386;2023-08-06T08:13:06;94107.00;;;32.83;40.49
27210;BME280;14721;42.668;23.386;2023-08-06T08:15:32;94102.34;;;32.43;40.11
27210;BME280;14721;42.668;23.386;2023-08-06T08:17:58;94099.88;;;32.46;41.62
27210;BME280;14721;42.668;23.386;2023-08-06T08:20:24;94104.25;;;32.32;40.98
27210;BME280;14721;42.668;23.386;2023-08-06T08:22:51;94120.06;;;31.40;42.24
27210;BME280;14721;42.668;23.386;2023-08-06T08:25:17;94106.50;;;29.87;45.08
27210;BME280;14721;42.668;23.386;2023-08-06T08:27:56;94122.25;;;29.92;45.34
27210;BME280;14721;42.668;23.386;2023-08-06T08:30:22;94122.91;;;30.67;44.02
27210;BME280;14721;42.668;23.386;2023-08-06T08:32:50;94101.88;;;30.56;44.68
27210;BME280;14721;42.668;23.386;2023-08-06T08:35:19;94067.75;;;29.46;44.78
27210;BME280;14721;42.668;23.386;2023-08-06T08:37:51;94084.00;;;29.69;45.40
27210;BME280;14721;42.668;23.386;2023-08-06T08:40:32;94058.44;;;29.47;44.65
27210;BME280;14721;42.668;23.386;2023-08-06T08:42:58;94109.88;;;29.24;47.74
27210;BME280;14721;42.668;23.386;2023-08-06T08:45:29;94116.94;;;29.15;46.93
27210;BME280;14721;42.668;23.386;2023-08-06T08:47:57;94047.97;;;29.70;46.37
27210;BME280;14721;42.668;23.386;2023-08-06T08:50:29;94110.72;;;31.05;44.75
27210;BME280;14721;42.668;23.386;2023-08-06T08:52:56;94093.34;;;31.61;42.93
27210;BME280;14721;42.668;23.386;2023-08-06T08:55:25;94070.50;;;31.95;40.14
27210;BME280;14721;42.668;23.386;2023-08-06T09:01:12;94089.88;;;32.25;39.96
27210;BME280;14721;42.668;23.386;2023-08-06T09:03:41;94092.47;;;31.50;41.05
27210;BME280;14721;42.668;23.386;2023-08-06T09:06:10;94078.13;;;31.53;41.72
27210;BME280;14721;42.668;23.386;2023-08-06T09:08:46;94069.97;;;32.03;41.00
27210;BME280;14721;42.668;23.386;2023-08-06T09:11:12;94088.38;;;31.63;40.36
27210;BME280;14721;42.668;23.386;2023-08-06T09:13:38;94069.78;;;31.33;41.39
27210;BME280;14721;42.668;23.386;2023-08-06T09:16:04;94059.78;;;31.22;41.73
27210;BME280;14721;42.668;23.386;2023-08-06T09:18:30;94075.34;;;31.43;41.02
27210;BME280;14721;42.668;23.386;2023-08-06T09:20:57;94052.41;;;30.76;42.87
27210;BME280;14721;42.668;23.386;2023-08-06T09:23:32;94077.53;;;30.11;44.56
27210;BME280;14721;42.668;23.386;2023-08-06T09:25:59;94078.91;;;29.82;45.19
27210;BME280;14721;42.668;23.386;2023-08-06T09:28:25;94070.53;;;30.30;45.22
27210;BME280;14721;42.668;23.386;2023-08-06T09:31:01;94068.38;;;30.37;44.65
27210;BME280;14721;42.668;23.386;2023-08-06T09:33:31;94048.53;;;30.04;44.21
27210;BME280;14721;42.668;23.386;2023-08-06T09:36:07;94038.91;;;29.75;45.13
27210;BME280;14721;42.668;23.386;2023-08-06T09:38:38;94047.56;;;29.88;44.90
27210;BME280;14721;42.668;23.386;2023-08-06T09:41:07;94034.22;;;29.49;44.50
27210;BME280;14721;42.668;23.386;2023-08-06T09:43:42;94046.41;;;29.58;44.36
27210;BME280;14721;42.668;23.386;2023-08-06T09:46:12;94039.16;;;29.47;45.00
27210;BME280;14721;42.668;23.386;2023-08-06T09:48:38;93992.53;;;28.65;44.50
27210;BME280;14721;42.668;23.386;2023-08-06T09:51:06;94059.00;;;28.84;45.89
27210;BME280;14721;42.668;23.386;2023-08-06T09:53:36;94060.78;;;28.73;46.50
27210;BME280;14721;42.668;23.386;2023-08-06T09:56:03;94076.06;;;28.64;45.75
27210;BME280;14721;42.668;23.386;2023-08-06T09:58:31;94049.81;;;28.35;45.57
27210;BME280;14721;42.668;23.386;2023-08-06T10:01:01;94051.84;;;27.90;46.94
27210;BME280;14721;42.668;23.386;2023-08-06T10:03:29;94065.41;;;27.52;47.42
27210;BME280;14721;42.668;23.386;2023-08-06T10:05:55;94055.53;;;27.23;48.11
27210;BME280;14721;42.668;23.386;2023-08-06T10:08:22;94064.72;;;27.17;47.97
27210;BME280;14721;42.668;23.386;2023-08-06T10:10:48;94068.44;;;27.11;46.67
27210;BME280;14721;42.668;23.386;2023-08-06T10:13:13;94068.19;;;27.12;46.82
27210;BME280;14721;42.668;23.386;2023-08-06T10:15:40;94048.59;;;26.92;47.12
27210;BME280;14721;42.668;23.386;2023-08-06T10:18:06;94076.03;;;27.20;47.18
27210;BME280;14721;42.668;23.386;2023-08-06T10:20:35;94067.22;;;27.18;47.86
27210;BME280;14721;42.668;23.386;2023-08-06T10:23:05;94041.09;;;27.27;47.17
27210;BME280;14721;42.668;23.386;2023-08-06T10:25:40;94063.50;;;27.52;46.94
27210;BME280;14721;42.668;23.386;2023-08-06T10:28:10;94070.16;;;27.57;47.78
27210;BME280;14721;42.668;23.386;2023-08-06T10:30:45;94072.41;;;27.60;48.17
27210;BME280;14721;42.668;23.386;2023-08-06T10:33:13;94063.91;;;27.61;47.05
27210;BME280;14721;42.668;23.386;2023-08-06T10:35:44;94063.44;;;27.81;47.09
27210;BME280;14721;42.668;23.386;2023-08-06T10:38:14;94069.91;;;27.75;46.84
27210;BME280;14721;42.668;23.386;2023-08-06T10:40:48;94058.28;;;27.68;47.09
27210;BME280;14721;42.668;23.386;2023-08-06T10:43:29;94092.56;;;27.37;47.11
27210;BME280;14721;42.668;23.386;2023-08-06T10:46:09;94056.38;;;26.84;49.32
27210;BME280;14721;42.668;23.386;2023-08-06T10:48:47;94072.59;;;26.85;49.71
27210;BME280;14721;42.668;23.386;2023-08-06T10:51:17;94085.19;;;26.86;49.41
27210;BME280;14721;42.668;23.386;2023-08-06T10:53:48;94081.41;;;26.76;49.65
27210;BME280;14721;42.668;23.386;2023-08-06T10:56:20;94106.03;;;26.87;49.61
27210;BME280;14721;42.668;23.386;2023-08-06T10:58:49;94115.97;;;26.77;50.26
27210;BME280;14721;42.668;23.386;2023-08-06T11:01:19;94112.16;;;26.78;50.01
27210;BME280;14721;42.668;23.386;2023-08-06T11:03:46;94079.16;;;26.73;49.45
27210;BME280;14721;42.668;23.386;2023-08-06T11:06:19;94107.63;;;26.83;48.44
27210;BME280;14721;42.668;23.386;2023-08-06T11:08:54;94113.66;;;26.97;49.21
27210;BME280;14721;42.668;23.386;2023-08-06T11:14:30;94078.50;;;26.94;48.29
27210;BME280;14721;42.668;23.386;2023-08-06T11:17:27;94114.31;;;27.27;48.08
27210;BME280;14721;42.668;23.386;2023-08-06T11:27:48;94131.00;;;27.82;47.19
27210;BME280;14721;42.668;23.386;2023-08-06T11:31:11;94141.13;;;28.09;46.90
27210;BME280;14721;42.668;23.386;2023-08-06T11:39:41;94141.03;;;27.20;49.82
27210;BME280;14721;42.668;23.386;2023-08-06T11:45:45;94088.09;;;26.45;56.49
27210;BME280;14721;42.668;23.386;2023-08-06T11:55:52;94100.13;;;27.18;55.98
27210;BME280;14721;42.668;23.386;2023-08-06T11:58:23;94079.41;;;27.11;54.98
27210;BME280;14721;42.668;23.386;2023-08-06T12:08:01;94118.09;;;27.37;52.27
27210;BME280;14721;42.668;23.386;2023-08-06T12:13:36;94103.25;;;27.95;49.14
27210;BME280;14721;42.668;23.386;2023-08-06T12:16:04;94073.44;;;28.20;47.74
27210;BME280;14721;42.668;23.386;2023-08-06T12:18:49;94099.41;;;28.62;46.98
27210;BME280;14721;42.668;23.386;2023-08-06T12:21:15;94080.19;;;28.29;45.98
27210;BME280;14721;42.668;23.386;2023-08-06T12:23:40;94094.69;;;28.24;46.84
27210;BME280;14721;42.668;23.386;2023-08-06T12:26:25;94044.41;;;27.58;46.98
27210;BME280;14721;42.668;23.386;2023-08-06T12:35:43;94077.09;;;28.25;47.69
27210;BME280;14721;42.668;23.386;2023-08-06T12:38:37;94044.34;;;28.02;45.88
27210;BME280;14721;42.668;23.386;2023-08-06T12:41:13;94074.94;;;28.27;45.68
27210;BME280;14721;42.668;23.386;2023-08-06T12:44:11;94088.56;;;28.39;44.37
27210;BME280;14721;42.668;23.386;2023-08-06T12:52:04;94085.81;;;28.55;44.91
27210;BME280;14721;42.668;23.386;2023-08-06T12:54:31;94074.19;;;28.48;44.24
27210;BME280;14721;42.668;23.386;2023-08-06T12:57:05;94094.91;;;28.56;44.11
27210;BME280;14721;42.668;23.386;2023-08-06T12:59:31;94056.44;;;28.39;43.77
27210;BME280;14721;42.668;23.386;2023-08-06T13:01:56;94078.75;;;28.59;43.82
27210;BME280;14721;42.668;23.386;2023-08-06T13:04:22;94076.78;;;28.76;43.19
27210;BME280;14721;42.668;23.386;2023-08-06T13:06:47;94088.38;;;29.00;43.50
27210;BME280;14721;42.668;23.386;2023-08-06T13:09:13;94088.69;;;29.03;43.34
27210;BME280;14721;42.668;23.386;2023-08-06T13:11:39;94085.19;;;29.08;43.31
27210;BME280;14721;42.668;23.386;2023-08-06T13:14:07;94091.44;;;29.03;43.16
27210;BME280;14721;42.668;23.386;2023-08-06T13:16:34;94083.41;;;29.18;42.34
27210;BME280;14721;42.668;23.386;2023-08-06T13:19:00;94091.63;;;29.13;42.59
27210;BME280;14721;42.668;23.386;2023-08-06T13:21:33;94095.94;;;28.88;42.80
27210;BME280;14721;42.668;23.386;2023-08-06T13:24:00;94100.72;;;28.76;43.13
27210;BME280;14721;42.668;23.386;2023-08-06T13:26:27;94038.31;;;28.55;43.42
27210;BME280;14721;42.668;23.386;2023-08-06T13:28:52;94100.97;;;28.96;42.49
27210;BME280;14721;42.668;23.386;2023-08-06T13:31:19;94075.94;;;28.38;41.92
27210;BME280;14721;42.668;23.386;2023-08-06T13:33:45;94119.53;;;28.34;43.09
27210;BME280;14721;42.668;23.386;2023-08-06T13:36:10;94045.41;;;27.68;44.11
27210;BME280;14721;42.668;23.386;2023-08-06T13:38:35;94107.34;;;27.81;44.19
27210;BME280;14721;42.668;23.386;2023-08-06T13:41:01;94115.00;;;27.62;45.00
27210;BME280;14721;42.668;23.386;2023-08-06T13:43:27;94082.81;;;27.29;45.77
27210;BME280;14721;42.668;23.386;2023-08-06T13:45:53;94096.00;;;27.44;45.10
27210;BME280;14721;42.668;23.386;2023-08-06T13:48:18;94116.50;;;27.41;46.07
27210;BME280;14721;42.668;23.386;2023-08-06T13:50:44;94092.72;;;27.19;46.77
27210;BME280;14721;42.668;23.386;2023-08-06T13:53:10;94105.94;;;27.33;46.23